Time;durP1;ratioP1;P1;durP2;ratioP2;P2;SDS_P1;SDS_P2;PMS_P1;PMS_P2;Temp;Humidity;BMP_temperature;BMP_pressure;BME280_temperature;BME280_humidity;BME280_pressure;Samples;Min_cycle;Max_cycle;Signal;HPM_P1;HPM_P2
2024/01/13 11:35:22;;;;;;;5.97;3.08;;;;;;;;;;6303247;27;1541977;-73
2024/01/13 11:38:23;;;;;;;7.50;3.60;;;;;;;;;;6358682;28;20039;-73
2024/01/13 11:41:23;;;;;;;6.63;3.17;;;;;;;;;;6357611;27;20024;-73
2024/01/13 11:44:26;;;;;;;9.80;4.07;;;;;;;;;;6358071;28;20102;-73
2024/01/13 11:47:28;;;;;;;11.25;4.70;;;;;;;;;;6368273;27;20015;-74
2024/01/13 11:50:28;;;;;;;;;;;;;;;;;;6360223;27;20391;-74
2024/01/13 11:53:32;;;;;;;8.82;3.53;;;;;;;;;;6354852;28;19972;-74
2024/01/13 11:56:32;;;;;;;8.68;4.30;;;;;;;;;;6358904;28;20762;-74
2024/01/13 11:59:33;;;;;;;9.57;4.17;;;;;;;;;;6361589;28;20031;-74
2024/01/13 12:02:33;;;;;;;10.83;4.90;;;;;;;;;;6359481;28;20149;-73
2024/01/13 12:05:33;;;;;;;10.43;5.10;;;;;;;;;;6356085;28;20027;-72
2024/01/13 12:08:33;;;;;;;9.47;4.77;;;;;;;;;;6356941;28;20028;-73
2024/01/13 12:11:34;;;;;;;14.50;5.13;;;;;;;;;;6358685;28;20020;-72
2024/01/13 12:14:35;;;;;;;11.50;5.30;;;;;;;;;;6357971;28;20019;-73
2024/01/13 12:17:37;;;;;;;11.63;5.13;;;;;;;;;;6356300;27;20034;-73
2024/01/13 12:20:37;;;;;;;13.40;5.63;;;;;;;;;;6357479;27;20087;-72
2024/01/13 12:23:37;;;;;;;11.10;5.23;;;;;;;;;;6353051;28;20019;-72
2024/01/13 12:26:38;;;;;;;12.37;5.50;;;;;;;;;;6358847;27;20490;-72
2024/01/13 12:29:38;;;;;;;11.07;5.40;;;;;;;;;;6359926;28;20069;-72
2024/01/13 12:32:38;;;;;;;11.20;4.97;;;;;;;;;;6352982;28;20027;-78
2024/01/13 12:35:38;;;;;;;11.23;4.93;;;;;;;;;;6357074;28;20418;-72
2024/01/13 12:38:39;;;;;;;11.43;4.97;;;;;;;;;;6356343;28;20403;-74
2024/01/13 12:41:39;;;;;;;17.40;7.07;;;;;;;;;;6360776;27;20592;-73
2024/01/13 12:44:41;;;;;;;13.20;6.80;;;;;;;;;;6355184;27;20082;-71
2024/01/13 12:47:42;;;;;;;11.82;6.43;;;;;;;;;;6339520;27;20030;-75
2024/01/13 12:50:43;;;;;;;11.73;5.70;;;;;;;;;;6341089;28;20015;-76
2024/01/13 12:53:45;;;;;;;10.57;5.23;;;;;;;;;;6332124;28;20046;-79
2024/01/13 12:56:46;;;;;;;10.20;5.70;;;;;;;;;;6338401;28;20462;-78
2024/01/13 12:59:46;;;;;;;12.98;5.78;;;;;;;;;;6341752;28;20103;-74
2024/01/13 13:02:51;;;;;;;13.23;5.43;;;;;;;;;;6339791;28;20039;-74
2024/01/13 13:05:52;;;;;;;10.63;5.07;;;;;;;;;;6340814;28;20064;-74
2024/01/13 13:08:52;;;;;;;11.23;4.90;;;;;;;;;;6338492;28;20325;-74
2024/01/13 13:11:53;;;;;;;11.68;5.15;;;;;;;;;;6337864;28;20020;-74
2024/01/13 13:14:53;;;;;;;9.53;5.13;;;;;;;;;;6336617;28;20040;-74
2024/01/13 13:17:53;;;;;;;10.43;5.20;;;;;;;;;;6339976;28;20023;-74
2024/01/13 13:20:54;;;;;;;9.43;5.23;;;;;;;;;;6339059;28;20472;-74
2024/01/13 13:23:54;;;;;;;9.73;4.60;;;;;;;;;;6330746;28;20031;-74
2024/01/13 13:26:54;;;;;;;10.17;4.80;;;;;;;;;;6341724;28;20020;-74
2024/01/13 13:29:54;;;;;;;9.53;5.30;;;;;;;;;;6339971;28;20104;-74
2024/01/13 13:32:55;;;;;;;10.07;4.47;;;;;;;;;;6336996;28;20058;-74
2024/01/13 13:35:55;;;;;;;10.43;4.47;;;;;;;;;;6338382;28;20042;-74
2024/01/13 13:38:55;;;;;;;10.70;4.97;;;;;;;;;;6339134;28;20094;-74
2024/01/13 13:41:55;;;;;;;8.77;4.77;;;;;;;;;;6339982;28;20068;-75
2024/01/13 13:44:56;;;;;;;11.43;5.10;;;;;;;;;;6340293;28;20042;-74
2024/01/13 13:47:56;;;;;;;12.13;5.13;;;;;;;;;;6339883;28;20512;-74
2024/01/13 13:50:56;;;;;;;11.07;4.87;;;;;;;;;;6339437;28;20027;-74
2024/01/13 13:53:56;;;;;;;10.03;4.70;;;;;;;;;;6341215;28;20488;-74
2024/01/13 13:56:58;;;;;;;10.57;4.47;;;;;;;;;;6339067;28;20482;-74
2024/01/13 13:59:58;;;;;;;9.15;4.93;;;;;;;;;;6339953;28;20023;-74
2024/01/13 14:02:59;;;;;;;10.23;5.47;;;;;;;;;;6337178;28;20058;-74
2024/01/13 14:05:59;;;;;;;10.65;5.28;;;;;;;;;;6340797;28;20067;-74
2024/01/13 14:09:00;;;;;;;11.23;5.07;;;;;;;;;;6340297;28;20040;-74
2024/01/13 14:12:00;;;;;;;8.77;4.50;;;;;;;;;;6338305;28;20027;-74
2024/01/13 14:15:00;;;;;;;8.23;4.50;;;;;;;;;;6339595;28;20063;-74
2024/01/13 14:18:01;;;;;;;8.93;4.53;;;;;;;;;;6339714;28;20103;-74
2024/01/13 14:21:01;;;;;;;9.70;4.93;;;;;;;;;;6339894;28;20110;-74
2024/01/13 14:24:03;;;;;;;10.20;4.80;;;;;;;;;;6338960;28;20043;-74
2024/01/13 14:27:03;;;;;;;;;;;;;;;;;;6320703;28;20027;-74
2024/01/13 14:30:04;;;;;;;6.45;3.53;;;;;;;;;;6339766;28;19968;-74
2024/01/13 14:33:04;;;;;;;7.83;3.40;;;;;;;;;;6336715;28;20039;-74
2024/01/13 14:36:05;;;;;;;9.07;4.20;;;;;;;;;;6340526;28;20016;-74
2024/01/13 14:39:05;;;;;;;8.40;4.27;;;;;;;;;;6338261;28;20102;-74
2024/01/13 14:42:05;;;;;;;8.47;4.20;;;;;;;;;;6338267;28;20164;-74
2024/01/13 14:45:07;;;;;;;10.03;5.37;;;;;;;;;;6340295;28;20039;-74
2024/01/13 14:48:07;;;;;;;9.68;4.40;;;;;;;;;;6317787;28;20115;-74
2024/01/13 14:51:07;;;;;;;8.63;4.70;;;;;;;;;;6338079;28;20023;-74
2024/01/13 14:54:07;;;;;;;8.47;4.23;;;;;;;;;;6339045;28;20051;-74
2024/01/13 14:57:08;;;;;;;9.83;4.17;;;;;;;;;;6340904;28;20027;-74
2024/01/13 15:00:13;;;;;;;10.50;4.43;;;;;;;;;;6337849;28;20027;-74
2024/01/13 15:03:13;;;;;;;9.18;4.50;;;;;;;;;;6335869;28;20099;-74
2024/01/13 15:06:13;;;;;;;12.00;4.53;;;;;;;;;;6339631;28;20034;-74
2024/01/13 15:09:14;;;;;;;7.57;4.20;;;;;;;;;;6335953;28;20032;-74
2024/01/13 15:12:17;;;;;;;8.00;4.17;;;;;;;;;;6339763;28;20088;-74
2024/01/13 15:15:17;;;;;;;10.65;4.55;;;;;;;;;;6337792;28;20035;-74
2024/01/13 15:18:18;;;;;;;7.57;4.10;;;;;;;;;;6333407;28;20051;-74
2024/01/13 15:21:18;;;;;;;8.33;4.33;;;;;;;;;;6338752;28;20023;-74
2024/01/13 15:24:18;;;;;;;8.97;4.03;;;;;;;;;;6338616;28;20039;-74
2024/01/13 15:27:20;;;;;;;7.57;4.13;;;;;;;;;;6337619;28;20032;-74
2024/01/13 15:30:22;;;;;;;10.88;4.43;;;;;;;;;;6338685;28;20077;-74
2024/01/13 15:33:22;;;;;;;9.55;4.40;;;;;;;;;;6333106;28;20059;-74
2024/01/13 15:36:22;;;;;;;8.97;4.23;;;;;;;;;;6336920;28;20456;-74
2024/01/13 15:39:23;;;;;;;9.10;4.47;;;;;;;;;;6338208;28;20684;-74
2024/01/13 15:42:23;;;;;;;8.37;4.33;;;;;;;;;;6337794;28;20026;-73
2024/01/13 15:45:23;;;;;;;6.63;3.63;;;;;;;;;;6335918;28;20032;-74
2024/01/13 15:48:23;;;;;;;9.27;4.17;;;;;;;;;;6336726;28;20115;-73
2024/01/13 15:51:24;;;;;;;7.93;4.43;;;;;;;;;;6338446;28;20102;-74
2024/01/13 15:54:24;;;;;;;8.70;4.10;;;;;;;;;;6338463;28;20123;-74
2024/01/13 15:57:25;;;;;;;7.93;4.13;;;;;;;;;;6338935;28;20352;-73
2024/01/13 16:00:25;;;;;;;9.57;3.90;;;;;;;;;;6338763;28;20126;-74
2024/01/13 16:03:25;;;;;;;10.47;4.30;;;;;;;;;;6336296;28;20111;-73
2024/01/13 16:06:26;;;;;;;8.13;3.73;;;;;;;;;;6337666;28;20115;-74
2024/01/13 16:09:27;;;;;;;7.55;3.50;;;;;;;;;;6335598;28;20024;-73
2024/01/13 16:12:27;;;;;;;8.93;3.70;;;;;;;;;;6333894;28;20027;-73
2024/01/13 16:15:27;;;;;;;9.03;4.40;;;;;;;;;;6339140;28;20040;-73
2024/01/13 16:18:28;;;;;;;9.30;3.90;;;;;;;;;;6331986;28;20119;-74
2024/01/13 16:21:29;;;;;;;7.73;3.50;;;;;;;;;;6339381;28;20023;-74
2024/01/13 16:24:29;;;;;;;10.07;4.20;;;;;;;;;;6342930;28;20035;-73
2024/01/13 16:27:29;;;;;;;8.20;3.77;;;;;;;;;;6343444;28;20460;-73
2024/01/13 16:30:29;;;;;;;7.23;3.57;;;;;;;;;;6340041;28;20493;-73
2024/01/13 16:33:30;;;;;;;9.13;3.70;;;;;;;;;;6339875;28;20499;-73
2024/01/13 16:36:30;;;;;;;6.80;3.87;;;;;;;;;;6339474;28;20039;-73
2024/01/13 16:39:30;;;;;;;7.07;3.80;;;;;;;;;;6335842;28;20035;-73
2024/01/13 16:42:30;;;;;;;8.60;4.07;;;;;;;;;;6340722;28;20020;-74
2024/01/13 16:45:31;;;;;;;5.90;3.27;;;;;;;;;;6338893;28;20024;-74
2024/01/13 16:48:31;;;;;;;5.50;2.93;;;;;;;;;;6339201;28;20519;-74
2024/01/13 16:51:31;;;;;;;6.93;3.17;;;;;;;;;;6337818;28;20647;-73
2024/01/13 16:54:31;;;;;;;8.50;3.93;;;;;;;;;;6342317;28;20035;-75
2024/01/13 16:57:32;;;;;;;6.87;3.23;;;;;;;;;;6343142;28;20479;-73
2024/01/13 17:00:32;;;;;;;7.87;4.03;;;;;;;;;;6342152;28;20495;-75
2024/01/13 17:03:32;;;;;;;10.77;4.03;;;;;;;;;;6341084;28;20088;-75
2024/01/13 17:06:32;;;;;;;8.13;3.57;;;;;;;;;;6340718;28;20027;-74
2024/01/13 17:09:33;;;;;;;7.00;3.43;;;;;;;;;;6334860;28;20024;-74
2024/01/13 17:12:33;;;;;;;10.03;4.13;;;;;;;;;;6338552;28;20032;-74
2024/01/13 17:15:33;;;;;;;6.70;3.47;;;;;;;;;;6340520;28;20032;-74
2024/01/13 17:18:35;;;;;;;7.03;3.87;;;;;;;;;;6338846;28;20114;-75
2024/01/13 17:21:35;;;;;;;10.68;4.07;;;;;;;;;;6337729;28;20028;-74
2024/01/13 17:24:36;;;;;;;9.87;4.47;;;;;;;;;;6324443;28;20555;-74
2024/01/13 17:27:37;;;;;;;8.52;4.40;;;;;;;;;;6336459;28;20051;-74
2024/01/13 17:30:37;;;;;;;7.53;4.00;;;;;;;;;;6313605;28;20761;-74
2024/01/13 17:33:38;;;;;;;9.43;4.43;;;;;;;;;;6315222;28;20356;-74
2024/01/13 17:36:38;;;;;;;10.37;4.03;;;;;;;;;;6291011;28;20583;-74
2024/01/13 17:39:38;;;;;;;9.63;4.07;;;;;;;;;;6291625;28;20039;-74
2024/01/13 17:42:39;;;;;;;10.37;4.17;;;;;;;;;;6291953;28;20035;-75
2024/01/13 17:45:39;;;;;;;8.87;4.27;;;;;;;;;;6272684;28;20024;-78
2024/01/13 17:48:40;;;;;;;10.03;4.70;;;;;;;;;;6289154;28;20052;-73
2024/01/13 17:51:40;;;;;;;9.77;4.37;;;;;;;;;;6291478;28;20109;-74
2024/01/13 17:54:40;;;;;;;8.60;4.33;;;;;;;;;;6287522;28;20033;-75
2024/01/13 17:57:41;;;;;;;9.50;4.47;;;;;;;;;;6289133;28;20024;-74
2024/01/13 18:00:41;;;;;;;9.63;4.40;;;;;;;;;;6290069;28;20028;-74
2024/01/13 18:03:42;;;;;;;7.90;4.03;;;;;;;;;;6290709;28;20099;-76
2024/01/13 18:06:42;;;;;;;11.48;4.25;;;;;;;;;;6292610;28;20028;-75
2024/01/13 18:09:43;;;;;;;7.23;3.87;;;;;;;;;;6286079;28;20059;-75
2024/01/13 18:12:43;;;;;;;8.63;3.90;;;;;;;;;;6289759;28;20056;-75
2024/01/13 18:15:43;;;;;;;11.00;3.83;;;;;;;;;;6286689;28;20024;-75
2024/01/13 18:18:43;;;;;;;9.03;4.23;;;;;;;;;;6289777;28;20024;-73
2024/01/13 18:21:44;;;;;;;11.57;4.10;;;;;;;;;;6273276;28;20460;-76
2024/01/13 18:24:46;;;;;;;9.20;4.68;;;;;;;;;;6288159;28;20090;-77
2024/01/13 18:27:47;;;;;;;9.10;4.65;;;;;;;;;;6292410;28;20405;-77
2024/01/13 18:30:47;;;;;;;9.77;5.07;;;;;;;;;;6293280;28;20103;-77
2024/01/13 18:33:48;;;;;;;10.20;4.50;;;;;;;;;;6287382;28;20465;-77
2024/01/13 18:36:48;;;;;;;10.60;4.63;;;;;;;;;;6271473;28;20028;-77
2024/01/13 18:39:48;;;;;;;9.40;4.53;;;;;;;;;;6272927;28;20024;-77
2024/01/13 18:42:48;;;;;;;9.80;4.20;;;;;;;;;;6290494;28;20473;-76
2024/01/13 18:45:49;;;;;;;9.50;4.00;;;;;;;;;;6293483;28;20020;-77
2024/01/13 18:48:49;;;;;;;10.10;5.03;;;;;;;;;;6291985;28;20043;-77
2024/01/13 18:51:49;;;;;;;10.30;4.67;;;;;;;;;;6285465;28;20471;-75
2024/01/13 18:54:49;;;;;;;8.90;4.53;;;;;;;;;;6291100;28;20477;-75
2024/01/13 18:57:50;;;;;;;8.37;4.40;;;;;;;;;;6290586;28;20435;-75
2024/01/13 19:00:52;;;;;;;8.60;4.47;;;;;;;;;;6288766;28;20115;-75
2024/01/13 19:03:52;;;;;;;10.00;4.15;;;;;;;;;;6289780;28;20074;-75
2024/01/13 19:06:53;;;;;;;9.30;4.33;;;;;;;;;;6288917;28;20496;-75
2024/01/13 19:09:53;;;;;;;7.40;4.43;;;;;;;;;;6285544;28;20070;-75
2024/01/13 19:12:54;;;;;;;9.50;4.23;;;;;;;;;;6286854;28;20028;-75
2024/01/13 19:15:54;;;;;;;10.20;4.80;;;;;;;;;;6289587;28;20032;-75
2024/01/13 19:18:55;;;;;;;8.13;4.33;;;;;;;;;;6279211;28;20420;-75
2024/01/13 19:21:57;;;;;;;9.50;4.60;;;;;;;;;;5932704;28;10000266;-74
2024/01/13 19:24:57;;;;;;;9.98;4.20;;;;;;;;;;6287927;28;20055;-75
2024/01/13 19:28:00;;;;;;;12.17;4.63;;;;;;;;;;6284106;28;20366;-75
2024/01/13 19:31:01;;;;;;;8.90;4.32;;;;;;;;;;6282934;28;20029;-75
2024/01/13 19:34:01;;;;;;;9.67;4.70;;;;;;;;;;6304064;28;20095;-75
2024/01/13 19:37:02;;;;;;;9.00;5.10;;;;;;;;;;6320592;28;20032;-75
2024/01/13 19:40:02;;;;;;;7.90;4.33;;;;;;;;;;6302776;28;20036;-75
2024/01/13 19:43:03;;;;;;;9.00;4.87;;;;;;;;;;6311684;28;20031;-75
2024/01/13 19:46:03;;;;;;;9.83;4.87;;;;;;;;;;6305992;28;20523;-75
2024/01/13 19:49:04;;;;;;;10.37;4.87;;;;;;;;;;6324500;28;20059;-75
2024/01/13 19:52:04;;;;;;;10.40;4.60;;;;;;;;;;6334020;28;20034;-75
2024/01/13 19:55:05;;;;;;;8.73;4.20;;;;;;;;;;6323711;28;20055;-75
2024/01/13 19:58:05;;;;;;;9.00;4.80;;;;;;;;;;6332817;28;20027;-75
2024/01/13 20:01:07;;;;;;;10.53;4.50;;;;;;;;;;6330832;28;20512;-75
2024/01/13 20:04:07;;;;;;;9.50;4.88;;;;;;;;;;6337470;28;20464;-75
2024/01/13 20:07:08;;;;;;;9.50;4.67;;;;;;;;;;6339018;28;20034;-75
2024/01/13 20:10:08;;;;;;;8.87;4.53;;;;;;;;;;6342445;27;20028;-75
2024/01/13 20:13:08;;;;;;;8.57;4.23;;;;;;;;;;6345935;28;20040;-75
2024/01/13 20:16:09;;;;;;;8.03;4.63;;;;;;;;;;6335925;28;20072;-75
2024/01/13 20:19:10;;;;;;;11.25;5.25;;;;;;;;;;6336890;28;20039;-75
2024/01/13 20:22:10;;;;;;;10.03;4.97;;;;;;;;;;6330581;28;20028;-75
2024/01/13 20:25:11;;;;;;;9.63;4.80;;;;;;;;;;6346453;28;20491;-75
2024/01/13 20:28:11;;;;;;;10.80;5.13;;;;;;;;;;6337857;27;20027;-75
2024/01/13 20:31:11;;;;;;;7.70;4.27;;;;;;;;;;6344989;28;20417;-75
2024/01/13 20:34:12;;;;;;;10.57;5.13;;;;;;;;;;6337671;28;20145;-75
2024/01/13 20:37:13;;;;;;;9.17;4.77;;;;;;;;;;6329479;28;20020;-75
2024/01/13 20:40:13;;;;;;;11.05;5.05;;;;;;;;;;6314640;28;20377;-75
2024/01/13 20:43:14;;;;;;;10.23;4.70;;;;;;;;;;6308296;28;20036;-75
2024/01/13 20:46:14;;;;;;;8.60;4.67;;;;;;;;;;6327258;27;20027;-75
2024/01/13 20:49:15;;;;;;;10.33;4.83;;;;;;;;;;6337842;28;20504;-75
2024/01/13 20:52:15;;;;;;;7.83;5.07;;;;;;;;;;6338114;28;20520;-74
2024/01/13 20:55:15;;;;;;;10.00;5.20;;;;;;;;;;6316128;28;20040;-75
2024/01/13 20:58:16;;;;;;;10.23;4.77;;;;;;;;;;6332019;28;20023;-75
2024/01/13 21:01:16;;;;;;;8.55;4.65;;;;;;;;;;6341752;28;20023;-75
2024/01/13 21:04:18;;;;;;;10.07;5.00;;;;;;;;;;6334332;28;20429;-75
2024/01/13 21:07:18;;;;;;;10.70;4.57;;;;;;;;;;6302053;28;20465;-74
2024/01/13 21:10:19;;;;;;;10.00;4.80;;;;;;;;;;6315559;27;20026;-75
2024/01/13 21:13:19;;;;;;;9.57;4.90;;;;;;;;;;6343782;28;20027;-75
2024/01/13 21:16:20;;;;;;;9.20;4.37;;;;;;;;;;6331916;28;20061;-76
2024/01/13 21:19:21;;;;;;;8.43;4.97;;;;;;;;;;6335096;28;20027;-75
2024/01/13 21:22:24;;;;;;;8.50;4.53;;;;;;;;;;6316878;28;20027;-75
2024/01/13 21:25:25;;;;;;;7.55;4.40;;;;;;;;;;6333017;28;20111;-74
2024/01/13 21:28:25;;;;;;;8.27;4.53;;;;;;;;;;6315253;28;20031;-75
2024/01/13 21:31:25;;;;;;;8.97;4.57;;;;;;;;;;6324740;28;20027;-75
2024/01/13 21:34:26;;;;;;;11.07;4.63;;;;;;;;;;6300603;28;20060;-75
2024/01/13 21:37:26;;;;;;;10.43;5.10;;;;;;;;;;6285610;28;20473;-74
2024/01/13 21:40:26;;;;;;;10.60;5.10;;;;;;;;;;6279598;28;20031;-75
2024/01/13 21:43:30;;;;;;;8.57;4.70;;;;;;;;;;6282301;28;20086;-75
2024/01/13 21:46:30;;;;;;;9.98;4.65;;;;;;;;;;6293181;28;20500;-75
2024/01/13 21:49:32;;;;;;;11.17;5.30;;;;;;;;;;6294247;28;20032;-75
2024/01/13 21:52:33;;;;;;;9.65;4.82;;;;;;;;;;6292264;28;20035;-75
2024/01/13 21:55:33;;;;;;;8.60;4.87;;;;;;;;;;6274995;28;20036;-75
2024/01/13 21:58:34;;;;;;;8.37;4.60;;;;;;;;;;6276133;28;20036;-75
2024/01/13 22:01:34;;;;;;;9.07;4.47;;;;;;;;;;6293531;28;20020;-75
2024/01/13 22:04:36;;;;;;;9.13;4.23;;;;;;;;;;6293047;28;20413;-74
2024/01/13 22:07:37;;;;;;;;;;;;;;;;;;6287903;28;20021;-75
2024/01/13 22:10:37;;;;;;;7.67;3.70;;;;;;;;;;6291948;28;19916;-75
2024/01/13 22:13:38;;;;;;;8.10;4.63;;;;;;;;;;6275803;28;20036;-75
2024/01/13 22:16:38;;;;;;;10.13;5.27;;;;;;;;;;6291887;28;20461;-75
2024/01/13 22:19:39;;;;;;;9.87;4.93;;;;;;;;;;6272154;28;20029;-75
2024/01/13 22:22:39;;;;;;;9.67;4.87;;;;;;;;;;6285236;28;20138;-75
2024/01/13 22:25:39;;;;;;;9.50;4.40;;;;;;;;;;6290233;28;20040;-75
2024/01/13 22:28:41;;;;;;;7.47;4.37;;;;;;;;;;6292047;28;20040;-75
2024/01/13 22:31:41;;;;;;;8.23;4.95;;;;;;;;;;6291465;28;20033;-75
2024/01/13 22:34:43;;;;;;;9.57;4.87;;;;;;;;;;6290824;28;20961;-75
2024/01/13 22:37:43;;;;;;;8.30;4.65;;;;;;;;;;6261261;28;20056;-75
2024/01/13 22:40:43;;;;;;;8.90;4.97;;;;;;;;;;6277246;28;20355;-75
2024/01/13 22:43:44;;;;;;;9.52;4.85;;;;;;;;;;5932477;28;9999983;-74
2024/01/13 22:46:44;;;;;;;10.10;5.13;;;;;;;;;;6291290;28;20091;-75
2024/01/13 22:49:44;;;;;;;9.30;5.03;;;;;;;;;;6280009;28;20048;-74
2024/01/13 22:52:44;;;;;;;9.87;5.20;;;;;;;;;;6275784;28;20017;-74
2024/01/13 22:55:45;;;;;;;10.30;5.70;;;;;;;;;;6288778;28;20039;-75
2024/01/13 22:58:45;;;;;;;9.57;5.17;;;;;;;;;;6274845;28;20575;-75
2024/01/13 23:01:45;;;;;;;10.37;4.90;;;;;;;;;;6273008;28;20086;-75
2024/01/13 23:04:49;;;;;;;10.37;5.33;;;;;;;;;;6282499;28;20083;-75
2024/01/13 23:07:51;;;;;;;9.85;5.45;;;;;;;;;;6295569;28;20115;-75
2024/01/13 23:10:51;;;;;;;10.15;5.80;;;;;;;;;;6292042;28;20469;-75
2024/01/13 23:13:52;;;;;;;10.50;5.50;;;;;;;;;;6287522;28;20056;-75
2024/01/13 23:16:52;;;;;;;9.07;5.00;;;;;;;;;;6273266;28;20032;-75
2024/01/13 23:19:53;;;;;;;12.23;5.57;;;;;;;;;;6296057;28;20036;-75
2024/01/13 23:22:53;;;;;;;11.15;5.47;;;;;;;;;;6279426;28;20457;-75
2024/01/13 23:25:54;;;;;;;10.70;5.00;;;;;;;;;;6269647;28;20036;-75
2024/01/13 23:28:55;;;;;;;9.05;4.82;;;;;;;;;;6295075;28;20029;-75
2024/01/13 23:31:55;;;;;;;11.83;5.63;;;;;;;;;;6267254;28;20028;-75
2024/01/13 23:34:57;;;;;;;9.83;5.30;;;;;;;;;;6288607;28;20114;-75
2024/01/13 23:37:57;;;;;;;10.93;5.28;;;;;;;;;;6270246;28;20094;-75
2024/01/13 23:40:58;;;;;;;10.67;5.23;;;;;;;;;;6276823;28;20029;-75
2024/01/13 23:43:58;;;;;;;10.40;5.17;;;;;;;;;;6260177;28;20020;-75
2024/01/13 23:46:58;;;;;;;8.70;5.23;;;;;;;;;;6269216;28;20123;-75
2024/01/13 23:49:58;;;;;;;8.67;5.20;;;;;;;;;;6294075;28;20073;-75
2024/01/13 23:52:59;;;;;;;9.37;5.10;;;;;;;;;;6283312;28;20025;-75
2024/01/13 23:56:00;;;;;;;10.27;4.97;;;;;;;;;;6281681;28;20032;-75
2024/01/13 23:59:03;;;;;;;10.30;5.38;;;;;;;;;;6287138;28;20017;-75
